Faisalabad Weather



Faisalabad's Current Weather

Temprature 35.02o light rain

light rain

Rain: 0 %

Min Temprature35.02o
Max Temprature35.02o
Humidity52
Wind Speed7.62 m/h
Sun Rise05:31:57
Sun Set18:53:18
Current Time: 13-Aug-2020 18:45:45
Lat/Lon: 31.42, 73.08




Faisalabad's Geo Location



Faisalabad's Weather Forecast

Time Overall Temp Min Temp Max Temp Humidity Wind Speed Rain
13-Aug-2020 (Thu)
20:00:00 light rain 36.910 31.850 36.910 48 8.67 m/h 62 %
23:00:00 moderate rain 33.470 31.190 33.470 57 5.44 m/h 332 %
14-Aug-2020 (Fri)
02:00:00 moderate rain 31.550 30.850 31.550 70 4.84 m/h 398 %
05:00:00 broken clouds 29.880 29.780 29.880 75 3.79 m/h 0 %
08:00:00 scattered clouds 30.890 30.890 30.890 72 4.2 m/h 0 %
11:00:00 light rain 35.120 35.120 35.120 53 2.34 m/h 94 %
14:00:00 broken clouds 36.500 36.500 36.500 47 1.75 m/h 0 %
17:00:00 scattered clouds 38.700 38.700 38.700 38 1.64 m/h 0 %
20:00:00 clear sky 36.150 36.150 36.150 44 1.76 m/h 0 %
23:00:00 clear sky 34.450 34.450 34.450 52 3.58 m/h 0 %
15-Aug-2020 (Sat)
02:00:00 few clouds 32.310 32.310 32.310 60 5.09 m/h 0 %
05:00:00 light rain 31.080 31.080 31.080 68 3.36 m/h 114 %
08:00:00 few clouds 33.080 33.080 33.080 60 4.92 m/h 0 %
11:00:00 few clouds 38.530 38.530 38.530 40 3.04 m/h 0 %
14:00:00 broken clouds 39.850 39.850 39.850 36 2.85 m/h 0 %
17:00:00 scattered clouds 39.990 39.990 39.990 36 4.09 m/h 0 %
20:00:00 clear sky 37.170 37.170 37.170 42 3.67 m/h 0 %
23:00:00 clear sky 35.080 35.080 35.080 49 5.13 m/h 0 %
16-Aug-2020 (Sun)
02:00:00 clear sky 33.630 33.630 33.630 55 5.24 m/h 0 %
05:00:00 light rain 32.810 32.810 32.810 59 4.53 m/h 33 %
08:00:00 light rain 33.050 33.050 33.050 60 4.94 m/h 21 %
11:00:00 scattered clouds 36.000 36.000 36.000 51 4.16 m/h 0 %
14:00:00 clear sky 40.110 40.110 40.110 37 3.53 m/h 0 %
17:00:00 clear sky 40.280 40.280 40.280 35 3.86 m/h 0 %
20:00:00 clear sky 36.750 36.750 36.750 42 3.67 m/h 0 %
23:00:00 clear sky 35.340 35.340 35.340 50 4.25 m/h 0 %
17-Aug-2020 (Mon)
02:00:00 light rain 33.220 33.220 33.220 58 4.47 m/h 30 %
05:00:00 light rain 31.840 31.840 31.840 65 4.41 m/h 55 %
08:00:00 broken clouds 33.200 33.200 33.200 61 3.65 m/h 0 %
11:00:00 scattered clouds 38.820 38.820 38.820 40 2.54 m/h 0 %
14:00:00 clear sky 42.040 42.040 42.040 31 2.53 m/h 0 %
17:00:00 scattered clouds 41.330 41.330 41.330 31 2.49 m/h 0 %
20:00:00 broken clouds 37.340 37.340 37.340 45 4.55 m/h 0 %
23:00:00 broken clouds 34.280 34.280 34.280 55 5.43 m/h 0 %
18-Aug-2020 (Tue)
02:00:00 overcast clouds 33.400 33.400 33.400 56 4.42 m/h 0 %
05:00:00 overcast clouds 32.680 32.680 32.680 53 2.88 m/h 0 %
08:00:00 scattered clouds 34.720 34.720 34.720 49 3.15 m/h 0 %
11:00:00 broken clouds 39.260 39.260 39.260 37 3.03 m/h 0 %
14:00:00 broken clouds 42.110 42.110 42.110 30 3.28 m/h 0 %
17:00:00 overcast clouds 40.830 40.830 40.830 33 3.96 m/h 0 %


Faisalabad's Tourist Spots

Parks and Zoos in Faisalabad

Famous Cities (60)